Ahbra Franco — WDG8801 — position and weather

sailwx.info

Track history (hours):
 
Tides and Currents Weather Stations Pressure Air Temp Water Temp Dewpoint Dewpoint Depression Visibility Wind Speed Wind Dir Waves Ship Positions

Ahbra Franco

Owner: Harley Marine Services, Inc, Seattle, WA. More information available from US FCC via Universal Licensing System and Coast Guard Vessel Documentation Center.

Last reported at 2017-Dec-16 14:41 UTC. Time now 2017-Dec-18 05:21 UTC.
Position N 37°55' W 122°25'.

Length 33 m; draft 5.9 m.

Type: Tug. MMSI: 367581220.

Date/timePositionNaut miles runAvg speedWind from/ knotsBaromVisibWave heightAir tempDewpointWater temp
2017-Dec-16 14:41N 37°55' W 122°25'0 0.0
2017-Dec-16 14:23N 37°55' W 122°25'0 0.4
2017-Dec-16 14:00N 37°55' W 122°25'0 0.0
2017-Dec-16 13:29N 37°55' W 122°25'2 4.5
2017-Dec-16 13:00N 37°53' W 122°25'4 7.6
2017-Dec-16 12:30N 37°50' W 122°24'3 6.9
2017-Dec-16 12:00N 37°48' W 122°20'2 4.5
2017-Dec-16 11:30N 37°48' W 122°17'0 0.3
2017-Dec-16 11:00N 37°48' W 122°17'0 0.0
2017-Dec-16 10:30N 37°48' W 122°17'0 0.0
2017-Dec-16 10:01N 37°48' W 122°17'0 0.0
2017-Dec-16 09:30N 37°48' W 122°17'0 0.0
2017-Dec-16 09:00N 37°48' W 122°17'0 0.0
2017-Dec-16 08:31N 37°48' W 122°17'0 0.0
2017-Dec-16 08:01N 37°48' W 122°17'0 0.0
2017-Dec-16 07:30N 37°48' W 122°17'0 0.0
2017-Dec-16 07:00N 37°48' W 122°17'0 0.0
2017-Dec-16 06:30N 37°48' W 122°17'0 0.0
2017-Dec-16 06:01N 37°48' W 122°17'0 0.0
2017-Dec-16 05:30N 37°48' W 122°17'0 0.0
2017-Dec-16 05:00N 37°48' W 122°17'0 0.0
2017-Dec-16 04:30N 37°48' W 122°17'0 0.0
2017-Dec-16 04:00N 37°48' W 122°17'0 0.0
2017-Dec-16 03:30N 37°48' W 122°17'0 0.0
2017-Dec-16 03:00N 37°48' W 122°17'0 0.0
2017-Dec-16 02:30N 37°48' W 122°17'0 0.0
2017-Dec-16 02:00N 37°48' W 122°17'0 0.0
2017-Dec-16 01:30N 37°48' W 122°17'0 0.0
2017-Dec-16 01:01N 37°48' W 122°17'0 0.0
2017-Dec-16 00:30N 37°48' W 122°17'0 0.0
2017-Dec-16 00:00N 37°48' W 122°17'0 0.0
2017-Dec-15 23:30N 37°48' W 122°17'0 0.0
2017-Dec-15 22:59N 37°48' W 122°17'0 0.0
2017-Dec-15 22:29N 37°48' W 122°17'0 0.0
2017-Dec-15 21:59N 37°48' W 122°17'0 0.0
2017-Dec-15 21:29N 37°48' W 122°17'0 0.0
2017-Dec-15 20:59N 37°48' W 122°17'0 0.0
2017-Dec-15 20:29N 37°48' W 122°17'0 0.0
2017-Dec-15 19:59N 37°48' W 122°17'0 0.5
2017-Dec-15 19:31N 37°48' W 122°17'1 2.1
2017-Dec-15 19:00N 37°48' W 122°19'1 1.8
2017-Dec-15 18:31N 37°48' W 122°18'0 0.7
2017-Dec-15 18:01N 37°48' W 122°18'2 4.9
2017-Dec-15 17:31N 37°48' W 122°21'1 1.9
2017-Dec-15 17:00N 37°48' W 122°22'4 8.3
2017-Dec-15 16:31N 37°48' W 122°17'0 0.1
2017-Dec-15 16:00N 37°48' W 122°17'2 3.9
2017-Dec-15 15:22N 37°49' W 122°20'0 0.0
2017-Dec-15 14:55N 37°49' W 122°20'0 0.0
2017-Dec-15 14:28N 37°49' W 122°20'0 0.0
2017-Dec-15 13:58N 37°49' W 122°20'0 0.0
2017-Dec-15 13:28N 37°49' W 122°20'0 0.0
2017-Dec-15 12:58N 37°49' W 122°20'0 0.0
2017-Dec-15 12:28N 37°49' W 122°20'0 0.0
2017-Dec-15 11:58N 37°49' W 122°20'0 0.0
2017-Dec-15 11:28N 37°49' W 122°20'0 0.0
2017-Dec-15 10:58N 37°49' W 122°20'3 7.0
2017-Dec-15 10:30N 37°49' W 122°24'5 9.3
2017-Dec-15 10:00N 37°49' W 122°30'1 2.1
2017-Dec-15 09:30N 37°49' W 122°31'510.0
2017-Dec-15 09:01N 37°51' W 122°25'5 9.2
2017-Dec-15 08:30N 37°55' W 122°25'1 1.1
2017-Dec-15 08:00N 37°55' W 122°25'0 0.1
2017-Dec-15 07:28N 37°55' W 122°25'0 0.0
2017-Dec-15 06:58N 37°55' W 122°25'0 0.4
2017-Dec-15 06:30N 37°55' W 122°25'0 0.4
2017-Dec-15 06:00N 37°55' W 122°25'3 6.4
2017-Dec-15 05:30N 37°52' W 122°24'3 6.0
2017-Dec-15 05:00N 37°49' W 122°23'2 4.8
2017-Dec-15 04:30N 37°47' W 122°22'2 3.7
2017-Dec-15 04:00N 37°45' W 122°21'3 2.0
2017-Dec-15 02:30N 37°48' W 122°21'0 0.3
2017-Dec-15 01:00N 37°49' W 122°20'3 5.2
2017-Dec-15 00:30N 37°48' W 122°17'0 0.0
2017-Dec-14 18:31N 37°48' W 122°17'0 0.0
2017-Dec-14 18:00N 37°48' W 122°17'0 0.0
2017-Dec-14 17:30N 37°48' W 122°17'0 0.5
2017-Dec-14 17:01N 37°48' W 122°17'1 2.3
2017-Dec-14 16:30N 37°48' W 122°19'0 0.7
2017-Dec-14 16:00N 37°48' W 122°19'1 1.3
2017-Dec-14 15:00N 37°48' W 122°17'0 0.9
2017-Dec-14 14:30N 37°48' W 122°17'2 3.8
2017-Dec-14 14:01N 37°48' W 122°20'1 1.5
2017-Dec-14 13:31N 37°48' W 122°21'3 5.5
2017-Dec-14 13:00N 37°48' W 122°17'0 0.2
2017-Dec-14 12:29N 37°48' W 122°17'0 0.0
2017-Dec-14 11:59N 37°48' W 122°17'0 0.0
2017-Dec-14 11:29N 37°48' W 122°17'0 0.0
2017-Dec-14 10:59N 37°48' W 122°17'0 0.0
2017-Dec-14 10:29N 37°48' W 122°17'0 0.0
2017-Dec-14 09:59N 37°48' W 122°17'0 0.0
2017-Dec-14 09:26N 37°48' W 122°17'0 0.0
2017-Dec-14 08:59N 37°48' W 122°17'0 0.0
2017-Dec-14 08:29N 37°48' W 122°17'0 0.0
2017-Dec-14 07:59N 37°48' W 122°17'0 0.0
2017-Dec-14 07:29N 37°48' W 122°17'0 0.0
2017-Dec-14 06:59N 37°48' W 122°17'0 0.0
2017-Dec-14 06:29N 37°48' W 122°17'0 0.0
2017-Dec-14 05:59N 37°48' W 122°17'0 0.0
2017-Dec-14 05:29N 37°48' W 122°17'0 0.0
2017-Dec-14 04:59N 37°48' W 122°17'0 0.0
2017-Dec-14 04:26N 37°48' W 122°17'0 0.0
2017-Dec-14 03:56N 37°48' W 122°17'0 0.0
2017-Dec-14 03:29N 37°48' W 122°17'0 0.0
2017-Dec-14 02:59N 37°48' W 122°17'0 0.0
2017-Dec-14 02:29N 37°48' W 122°17'0 0.2
2017-Dec-14 02:01N 37°48' W 122°17'2 3.6
2017-Dec-14 01:31N 37°48' W 122°20'1 1.1
2017-Dec-14 01:00N 37°48' W 122°20'2 3.7
2017-Dec-14 00:30N 37°47' W 122°22'1 1.4
2017-Dec-14 00:00N 37°47' W 122°22'2 4.5
2017-Dec-13 23:31N 37°48' W 122°19'1 2.7
2017-Dec-13 23:00N 37°48' W 122°17'0 0.0
2017-Dec-13 22:27N 37°48' W 122°17'0 0.0
2017-Dec-13 22:00N 37°48' W 122°17'0 0.0
2017-Dec-13 21:30N 37°48' W 122°17'0 0.0
2017-Dec-13 20:59N 37°48' W 122°17'0 0.0
2017-Dec-13 20:26N 37°48' W 122°17'0 0.0
2017-Dec-13 20:00N 37°48' W 122°17'0 0.0
2017-Dec-13 19:30N 37°48' W 122°17'0 0.0
2017-Dec-13 19:00N 37°48' W 122°17'0 0.0
2017-Dec-13 18:29N 37°48' W 122°17'0 0.0
2017-Dec-13 17:59N 37°48' W 122°17'0 0.0
2017-Dec-13 17:30N 37°48' W 122°17'0 0.0
2017-Dec-13 17:00N 37°48' W 122°17'0 0.0
2017-Dec-13 16:29N 37°48' W 122°17'0 0.0
2017-Dec-13 16:00N 37°48' W 122°17'0 0.0
2017-Dec-13 15:30N 37°48' W 122°17'2 3.7
2017-Dec-13 15:00N 37°48' W 122°19'0 0.4
2017-Dec-13 14:30N 37°48' W 122°19'1 2.7
2017-Dec-13 14:00N 37°48' W 122°17'1 1.5
2017-Dec-13 13:30N 37°48' W 122°18'1 2.8
2017-Dec-13 13:01N 37°48' W 122°20'1 2.7
2017-Dec-13 12:30N 37°48' W 122°22'3 6.5
2017-Dec-13 12:00N 37°48' W 122°18'1 1.0
2017-Dec-13 11:30N 37°48' W 122°18'1 1.4
2017-Dec-13 11:00N 37°48' W 122°19'0 0.0
2017-Dec-13 10:30N 37°48' W 122°19'2 3.3
2017-Dec-13 10:00N 37°48' W 122°17'0 0.0
2017-Dec-13 09:30N 37°48' W 122°17'0 0.0
2017-Dec-13 09:00N 37°48' W 122°17'0 0.0
2017-Dec-13 08:30N 37°48' W 122°17'0 0.0
2017-Dec-13 08:00N 37°48' W 122°17'0 0.0
2017-Dec-13 07:30N 37°48' W 122°17'0 0.0
2017-Dec-13 07:00N 37°48' W 122°17'0 0.0
2017-Dec-13 06:30N 37°48' W 122°17'0 0.0
2017-Dec-13 06:00N 37°48' W 122°17'0 0.0
2017-Dec-13 05:30N 37°48' W 122°17'0 0.0
2017-Dec-13 05:00N 37°48' W 122°17'0 0.0
2017-Dec-13 04:30N 37°48' W 122°17'0 0.5
2017-Dec-13 04:00N 37°48' W 122°17'2 5.0
2017-Dec-13 03:30N 37°49' W 122°20'0 0.1
2017-Dec-13 03:01N 37°49' W 122°20'0 0.0
2017-Dec-13 02:30N 37°49' W 122°20'1 2.8
2017-Dec-13 02:00N 37°48' W 122°19'0 0.8
2017-Dec-13 01:31N 37°48' W 122°19'1 1.3
2017-Dec-13 01:00N 37°48' W 122°19'0 0.1
2017-Dec-13 00:30N 37°48' W 122°18'1 1.4
2017-Dec-13 00:01N 37°48' W 122°19'0 0.1
2017-Dec-12 23:31N 37°48' W 122°19'2 3.4
2017-Dec-12 23:00N 37°48' W 122°17'0 0.0
2017-Dec-12 22:30N 37°48' W 122°17'4 7.7
2017-Dec-12 22:00N 37°48' W 122°22'4 9.0
2017-Dec-12 21:30N 37°49' W 122°28'3 5.6
2017-Dec-12 21:00N 37°49' W 122°31'3 6.4
2017-Dec-12 20:30N 37°50' W 122°27'4 7.2
2017-Dec-12 20:00N 37°53' W 122°25'2 3.9
2017-Dec-12 19:30N 37°55' W 122°25'0 0.3
2017-Dec-12 18:59N 37°55' W 122°25'0 0.3
2017-Dec-12 18:30N 37°55' W 122°25'3 6.2
2017-Dec-12 18:00N 37°52' W 122°25'4 8.8
2017-Dec-12 17:30N 37°49' W 122°21'4 7.0
2017-Dec-12 17:00N 37°48' W 122°17'0 0.0
2017-Dec-12 16:30N 37°48' W 122°17'0 0.0
2017-Dec-12 16:01N 37°48' W 122°17'0 0.0
2017-Dec-12 15:28N 37°48' W 122°17'0 0.0
2017-Dec-12 14:58N 37°48' W 122°17'0 0.0
2017-Dec-12 14:30N 37°48' W 122°17'0 0.0
2017-Dec-12 14:01N 37°48' W 122°17'0 0.0
2017-Dec-12 13:28N 37°48' W 122°17'0 0.0
2017-Dec-12 12:58N 37°48' W 122°17'0 0.0
2017-Dec-12 12:31N 37°48' W 122°17'0 0.0
2017-Dec-12 12:00N 37°48' W 122°17'0 0.0
2017-Dec-12 11:28N 37°48' W 122°17'0 0.0
2017-Dec-12 10:58N 37°48' W 122°17'0 0.0
2017-Dec-12 10:31N 37°48' W 122°17'0 0.0
2017-Dec-12 09:58N 37°48' W 122°17'0 0.0
2017-Dec-12 09:25N 37°48' W 122°17'0 0.0
2017-Dec-12 08:54N 37°48' W 122°17'0 0.0
2017-Dec-12 08:28N 37°48' W 122°17'0 0.0
2017-Dec-12 08:01N 37°48' W 122°17'0 0.0
2017-Dec-12 07:31N 37°48' W 122°17'0 0.0
2017-Dec-12 06:57N 37°48' W 122°17'0 0.0
2017-Dec-12 06:28N 37°48' W 122°17'0 0.0
2017-Dec-12 05:58N 37°48' W 122°17'0 0.0
2017-Dec-12 05:27N 37°48' W 122°17'0 0.0
2017-Dec-12 04:58N 37°48' W 122°17'0 0.0
2017-Dec-12 04:31N 37°48' W 122°17'0 0.0
2017-Dec-12 03:57N 37°48' W 122°17'0 0.0
2017-Dec-12 03:31N 37°48' W 122°17'0 0.0
2017-Dec-12 03:00N 37°48' W 122°17'2 3.5
2017-Dec-12 02:30N 37°48' W 122°19'0 0.0
2017-Dec-12 02:00N 37°48' W 122°19'3 5.7
2017-Dec-12 01:31N 37°48' W 122°23'3 5.1
2017-Dec-12 01:00N 37°48' W 122°20'2 4.0
2017-Dec-12 00:30N 37°48' W 122°17'0 0.0
2017-Dec-11 23:59N 37°48' W 122°17'0 0.0
2017-Dec-11 23:29N 37°48' W 122°17'0 0.0
2017-Dec-11 22:59N 37°48' W 122°17'0 0.0
2017-Dec-11 22:26N 37°48' W 122°17'0 0.0
2017-Dec-11 21:59N 37°48' W 122°17'0 0.0
2017-Dec-11 21:26N 37°48' W 122°17'0 0.0
2017-Dec-11 20:59N 37°48' W 122°17'0 0.0
2017-Dec-11 20:29N 37°48' W 122°17'0 0.0
2017-Dec-11 19:59N 37°48' W 122°17'0 0.0
2017-Dec-11 19:29N 37°48' W 122°17'1 3.1
2017-Dec-11 19:01N 37°48' W 122°19'4 8.1
2017-Dec-11 18:30N 37°50' W 122°24'5 9.9
2017-Dec-11 18:00N 37°54' W 122°25'510.7
2017-Dec-11 17:30N 37°60' W 122°25'5 9.6
2017-Dec-11 17:00N 38°03' W 122°20'4 8.5
2017-Dec-11 16:30N 38°04' W 122°15'4 8.2
2017-Dec-11 15:58N 38°02' W 122°10'2 3.4
2017-Dec-11 15:30N 38°02' W 122°08'0 0.0
2017-Dec-11 15:00N 38°02' W 122°08'0 0.0
2017-Dec-11 14:30N 38°02' W 122°08'0 0.2
2017-Dec-11 14:00N 38°02' W 122°08'2 4.0
2017-Dec-11 13:30N 38°03' W 122°10'4 8.9
2017-Dec-11 13:00N 38°04' W 122°16'5 8.0
2017-Dec-11 12:23N 38°02' W 122°22'4 8.6
2017-Dec-11 11:57N 37°59' W 122°25'511.6
2017-Dec-11 11:30N 37°54' W 122°27'510.7
2017-Dec-11 11:00N 37°50' W 122°24'5 9.2
2017-Dec-11 10:30N 37°46' W 122°21'1 1.3
2017-Dec-11 10:01N 37°46' W 122°21'3 6.6
2017-Dec-11 09:30N 37°48' W 122°17'0 0.0
2017-Dec-11 09:00N 37°48' W 122°17'0 0.0
2017-Dec-11 08:30N 37°48' W 122°17'0 0.0
2017-Dec-11 08:00N 37°48' W 122°17'0 0.0
2017-Dec-11 07:31N 37°48' W 122°17'0 0.0
2017-Dec-11 07:00N 37°48' W 122°17'0 0.0
2017-Dec-11 06:31N 37°48' W 122°17'0 0.0
2017-Dec-11 06:00N 37°48' W 122°17'0 0.0
2017-Dec-11 05:30N 37°48' W 122°17'0 0.0
2017-Dec-11 05:00N 37°48' W 122°17'0 0.0
2017-Dec-11 04:30N 37°48' W 122°17'2 3.6
2017-Dec-11 04:00N 37°48' W 122°19'0 0.0
2017-Dec-11 03:30N 37°48' W 122°19'1 1.9
2017-Dec-11 03:01N 37°48' W 122°18'1 2.0
2017-Dec-11 02:31N 37°48' W 122°17'1 2.2
2017-Dec-11 02:00N 37°48' W 122°18'3 6.1
2017-Dec-11 01:30N 37°48' W 122°22'1 2.4
2017-Dec-11 01:00N 37°48' W 122°21'3 5.6
2017-Dec-11 00:30N 37°48' W 122°17'0 0.0
2017-Dec-10 23:58N 37°48' W 122°17'0 0.0
2017-Dec-10 23:28N 37°48' W 122°17'0 0.0
2017-Dec-10 22:58N 37°48' W 122°17'0 0.0
2017-Dec-10 22:28N 37°48' W 122°17'0 0.0
2017-Dec-10 21:58N 37°48' W 122°17'0 0.0
2017-Dec-10 21:25N 37°48' W 122°17'0 0.0
2017-Dec-10 20:58N 37°48' W 122°17'0 0.0
2017-Dec-10 20:28N 37°48' W 122°17'0 0.0
2017-Dec-10 19:58N 37°48' W 122°17'0 0.0
2017-Dec-10 19:28N 37°48' W 122°17'0 0.0
2017-Dec-10 18:58N 37°48' W 122°17'0 0.0
2017-Dec-10 18:28N 37°48' W 122°17'0 0.0
2017-Dec-10 17:58N 37°48' W 122°17'0 0.0
2017-Dec-10 17:28N 37°48' W 122°17'0 0.0
2017-Dec-10 16:58N 37°48' W 122°17'0 0.0
2017-Dec-10 16:28N 37°48' W 122°17'1 3.2
2017-Dec-10 16:00N 37°48' W 122°19'0 0.4
2017-Dec-10 15:30N 37°48' W 122°19'1 2.4
2017-Dec-10 15:00N 37°48' W 122°21'2 4.4
2017-Dec-10 14:30N 37°48' W 122°18'0 0.8
2017-Dec-10 14:00N 37°48' W 122°18'1 2.5
2017-Dec-10 13:30N 37°48' W 122°19'0 0.1
2017-Dec-10 13:01N 37°48' W 122°19'1 1.8
2017-Dec-10 12:30N 37°48' W 122°18'1 1.3
2017-Dec-10 11:59N 37°48' W 122°17'0 0.0
2017-Dec-10 11:29N 37°48' W 122°17'0 0.0
2017-Dec-10 10:59N 37°48' W 122°17'0 0.0
2017-Dec-10 10:29N 37°48' W 122°17'0 0.0
2017-Dec-10 09:59N 37°48' W 122°17'0 0.0
2017-Dec-10 09:29N 37°48' W 122°17'0 0.0
2017-Dec-10 08:59N 37°48' W 122°17'0 0.0
2017-Dec-10 08:29N 37°48' W 122°17'0 0.0
2017-Dec-10 07:59N 37°48' W 122°17'0 0.0
2017-Dec-10 07:29N 37°48' W 122°17'0 0.0
2017-Dec-10 06:59N 37°48' W 122°17'0 0.0
2017-Dec-10 06:29N 37°48' W 122°17'0 0.0
2017-Dec-10 05:59N 37°48' W 122°17'0 0.0
2017-Dec-10 05:29N 37°48' W 122°17'0 0.0
2017-Dec-10 04:59N 37°48' W 122°17'0 0.0
2017-Dec-10 04:26N 37°48' W 122°17'0 0.0
2017-Dec-10 03:59N 37°48' W 122°17'0 0.0
2017-Dec-10 03:29N 37°48' W 122°17'0 0.0
2017-Dec-10 02:59N 37°48' W 122°17'0 0.0
2017-Dec-10 02:29N 37°48' W 122°17'0 0.0
2017-Dec-10 01:59N 37°48' W 122°17'0 0.0
2017-Dec-10 01:29N 37°48' W 122°17'0 0.0
2017-Dec-10 00:50N 37°48' W 122°17'0 0.0
2017-Dec-10 00:29N 37°48' W 122°17'0 0.0
2017-Dec-09 23:56N 37°48' W 122°17'0 0.0
2017-Dec-09 23:29N 37°48' W 122°17'0 0.0
2017-Dec-09 22:56N 37°48' W 122°17'0 0.0
2017-Dec-09 22:29N 37°48' W 122°17'0 0.0
2017-Dec-09 21:56N 37°48' W 122°17'0 0.0
2017-Dec-09 21:29N 37°48' W 122°17'0 0.0
2017-Dec-09 20:59N 37°48' W 122°17'0 0.0
2017-Dec-09 20:23N 37°48' W 122°17'0 0.0
2017-Dec-09 19:59N 37°48' W 122°17'0 0.0
2017-Dec-09 19:26N 37°48' W 122°17'0 0.0
2017-Dec-09 18:56N 37°48' W 122°17'0 0.0
2017-Dec-09 18:29N 37°48' W 122°17'0 0.0
2017-Dec-09 17:56N 37°48' W 122°17'0 0.0
2017-Dec-09 17:29N 37°48' W 122°17'0 0.0
2017-Dec-09 16:59N 37°48' W 122°17'0 0.0
2017-Dec-09 16:26N 37°48' W 122°17'0 0.0
2017-Dec-09 15:59N 37°48' W 122°17'0 0.0
2017-Dec-09 15:29N 37°48' W 122°17'0 0.0
2017-Dec-09 14:59N 37°48' W 122°17'0 0.0
2017-Dec-09 14:29N 37°48' W 122°17'2 3.2
2017-Dec-09 14:00N 37°48' W 122°19'0 0.3
2017-Dec-09 13:30N 37°48' W 122°19'2 3.9
2017-Dec-09 13:00N 37°48' W 122°22'2 4.0
2017-Dec-09 12:30N 37°49' W 122°24'3 6.4
2017-Dec-09 12:00N 37°46' W 122°22'1 3.0
2017-Dec-09 11:30N 37°45' W 122°20'0 0.6
2017-Dec-09 11:00N 37°45' W 122°20'2 3.8
2017-Dec-09 10:31N 37°46' W 122°22'4 8.0
2017-Dec-09 10:00N 37°49' W 122°25'4 8.7
2017-Dec-09 09:30N 37°49' W 122°31'0 1.0
2017-Dec-09 09:00N 37°49' W 122°31'1 2.7
2017-Dec-09 08:30N 37°49' W 122°30'4 7.3
2017-Dec-09 08:00N 37°49' W 122°25'4 7.7
2017-Dec-09 07:30N 37°49' W 122°20'0 0.1
2017-Dec-09 07:00N 37°49' W 122°20'0 0.0
2017-Dec-09 06:30N 37°49' W 122°20'0 0.1
2017-Dec-09 06:00N 37°49' W 122°20'4 7.0
2017-Dec-09 05:30N 37°45' W 122°21'1 1.1
2017-Dec-09 05:01N 37°46' W 122°22'4 7.2
2017-Dec-09 04:30N 37°49' W 122°24'4 8.7
2017-Dec-09 04:01N 37°49' W 122°29'2 3.4
2017-Dec-09 03:30N 37°49' W 122°31'0 0.2
2017-Dec-09 03:00N 37°49' W 122°31'1 1.6
2017-Dec-09 02:30N 37°49' W 122°30'3 5.8
2017-Dec-09 02:00N 37°49' W 122°27'4 8.6
2017-Dec-09 01:30N 37°48' W 122°21'3 6.6
2017-Dec-09 01:00N 37°48' W 122°17'0 0.0
2017-Dec-09 00:30N 37°48' W 122°17'0 0.0
2017-Dec-09 00:00N 37°48' W 122°17'0 0.0
2017-Dec-08 23:30N 37°48' W 122°17'0 0.0
2017-Dec-08 23:00N 37°48' W 122°17'0 0.0
2017-Dec-08 22:30N 37°48' W 122°17'0 0.0
2017-Dec-08 22:00N 37°48' W 122°17'0 0.0
2017-Dec-08 21:30N 37°48' W 122°17'0 0.0
2017-Dec-08 21:00N 37°48' W 122°17'0 0.0
2017-Dec-08 20:30N 37°48' W 122°17'0 0.0
2017-Dec-08 20:00N 37°48' W 122°17'0 0.0
2017-Dec-08 19:30N 37°48' W 122°17'0 0.0
2017-Dec-08 19:00N 37°48' W 122°17'0 0.0
2017-Dec-08 18:30N 37°48' W 122°17'0 0.0
2017-Dec-08 18:00N 37°48' W 122°17'0 0.0
2017-Dec-08 17:30N 37°48' W 122°17'0 0.0
2017-Dec-08 17:00N 37°48' W 122°17'3 5.5
2017-Dec-08 16:30N 37°48' W 122°21'4 7.7
2017-Dec-08 16:00N 37°51' W 122°24'510.8
2017-Dec-08 15:30N 37°56' W 122°26'510.2
2017-Dec-08 15:00N 38°01' W 122°24'5 9.4
2017-Dec-08 14:30N 38°03' W 122°18'5 8.7
2017-Dec-08 13:58N 38°03' W 122°12'4 3.0
2017-Dec-08 12:42N 38°02' W 122°08'0 0.0
2017-Dec-08 12:29N 38°02' W 122°08'3 3.7
2017-Dec-08 11:47N 38°03' W 122°11'3 8.7
2017-Dec-08 11:29N 38°04' W 122°14'610.2
2017-Dec-08 10:57N 38°03' W 122°21'511.7
2017-Dec-08 10:29N 37°59' W 122°26'611.6
2017-Dec-08 09:59N 37°53' W 122°26'510.1
2017-Dec-08 09:30N 37°49' W 122°23'3 6.9
2017-Dec-08 09:01N 37°46' W 122°21'0 0.8
2017-Dec-08 08:31N 37°46' W 122°21'3 6.0
2017-Dec-08 08:01N 37°48' W 122°17'0 0.2
2017-Dec-08 07:28N 37°48' W 122°17'0 0.0
2017-Dec-08 06:58N 37°48' W 122°17'0 0.0
2017-Dec-08 06:28N 37°48' W 122°17'0 0.0
2017-Dec-08 05:58N 37°48' W 122°17'0 0.0
2017-Dec-08 05:28N 37°48' W 122°17'0 0.0
2017-Dec-08 04:58N 37°48' W 122°17'0 0.0
2017-Dec-08 04:28N 37°48' W 122°17'0 0.0
2017-Dec-08 03:58N 37°48' W 122°17'0 0.0
2017-Dec-08 03:28N 37°48' W 122°17'0 0.0
2017-Dec-08 02:58N 37°48' W 122°17'0 0.0
2017-Dec-08 02:28N 37°48' W 122°17'0 0.0
2017-Dec-08 01:58N 37°48' W 122°17'0 0.0
2017-Dec-08 01:28N 37°48' W 122°17'0 0.0
2017-Dec-08 00:58N 37°48' W 122°17'2 3.5
2017-Dec-08 00:31N 37°48' W 122°19'1 2.6
2017-Dec-08 00:01N 37°48' W 122°18'1 2.9
2017-Dec-07 23:30N 37°48' W 122°19'0 0.7
2017-Dec-07 23:01N 37°48' W 122°19'1 2.8
2017-Dec-07 22:31N 37°48' W 122°17'0 0.0
2017-Dec-07 22:00N 37°48' W 122°17'0 0.0
2017-Dec-07 21:30N 37°48' W 122°17'0 0.0
2017-Dec-07 21:01N 37°48' W 122°17'0 0.0
2017-Dec-07 20:30N 37°48' W 122°17'0 0.0
2017-Dec-07 20:00N 37°48' W 122°17'0 0.0
2017-Dec-07 19:30N 37°48' W 122°17'0 0.0
2017-Dec-07 19:00N 37°48' W 122°17'0 0.0
2017-Dec-07 18:30N 37°48' W 122°17'0 0.0
2017-Dec-07 18:00N 37°48' W 122°17'0 0.0
2017-Dec-07 17:30N 37°48' W 122°17'3 6.0
2017-Dec-07 17:00N 37°47' W 122°21'510.4
2017-Dec-07 16:30N 37°41' W 122°20'510.5
2017-Dec-07 16:01N 37°37' W 122°17'611.2
2017-Dec-07 15:30N 37°33' W 122°12'2 4.2
2017-Dec-07 14:59N 37°31' W 122°12'0 0.1
2017-Dec-07 14:29N 37°31' W 122°13'1 1.6
2017-Dec-07 14:01N 37°32' W 122°12'4 7.2
2017-Dec-07 13:29N 37°35' W 122°15'5 9.5
2017-Dec-07 13:00N 37°38' W 122°18'5 9.4
2017-Dec-07 12:30N 37°42' W 122°20'5 9.7
2017-Dec-07 12:00N 37°47' W 122°21'3 5.7
2017-Dec-07 11:30N 37°48' W 122°17'0 0.0
2017-Dec-07 11:00N 37°48' W 122°17'0 0.0
2017-Dec-07 10:30N 37°48' W 122°17'0 0.0
2017-Dec-07 10:01N 37°48' W 122°17'0 0.0
2017-Dec-07 09:30N 37°48' W 122°17'0 0.0
2017-Dec-07 09:00N 37°48' W 122°17'0 0.0
2017-Dec-07 08:30N 37°48' W 122°17'0 0.0
2017-Dec-07 08:00N 37°48' W 122°17'0 0.0
2017-Dec-07 07:30N 37°48' W 122°17'0 0.0
2017-Dec-07 07:01N 37°48' W 122°17'0 0.0
2017-Dec-07 06:30N 37°48' W 122°17'0 0.0
2017-Dec-07 06:00N 37°48' W 122°17'0 0.0
2017-Dec-07 05:30N 37°48' W 122°17'0 0.0
2017-Dec-07 05:00N 37°48' W 122°17'0 0.1
2017-Dec-07 04:31N 37°47' W 122°17'0 0.0
2017-Dec-07 04:00N 37°47' W 122°17'0 0.0
2017-Dec-07 03:30N 37°47' W 122°17'2 4.6
2017-Dec-07 03:00N 37°49' W 122°20'0 0.1
2017-Dec-07 02:31N 37°49' W 122°20'2 3.8
2017-Dec-07 02:00N 37°48' W 122°22'1 1.0
2017-Dec-07 01:31N 37°48' W 122°23'3 5.4
2017-Dec-07 01:00N 37°48' W 122°19'0 0.4
2017-Dec-07 00:31N 37°48' W 122°20'3 6.1
2017-Dec-07 00:00N 37°49' W 122°23'2 3.1
2017-Dec-06 23:30N 37°50' W 122°24'4 8.8
2017-Dec-06 23:00N 37°54' W 122°25'5 9.5
2017-Dec-06 22:26N 37°60' W 122°25'5 8.7
2017-Dec-06 21:49N 38°03' W 122°19'5 8.0
2017-Dec-06 21:15N 38°04' W 122°13'  
Track history (hours):
 
Tides and Currents Weather Stations Pressure Air Temp Water Temp Dewpoint Dewpoint Depression Visibility Wind Speed Wind Dir Waves Ship Positions

Ahbra Franco

Owner: Harley Marine Services, Inc, Seattle, WA. More information available from US FCC via Universal Licensing System and Coast Guard Vessel Documentation Center.

Last reported at 2017-Dec-16 14:41 UTC. Time now 2017-Dec-18 05:21 UTC.
Position N 37°55' W 122°25'.

Length 33 m; draft 5.9 m.

Type: Tug. MMSI: 367581220.

Date/timePositionNaut miles runAvg speedWind from/ knotsBaromVisibWave heightAir tempDewpointWater temp
2017-Dec-16 14:41N 37°55' W 122°25'0 0.0
2017-Dec-16 14:23N 37°55' W 122°25'0 0.4
2017-Dec-16 14:00N 37°55' W 122°25'0 0.0
2017-Dec-16 13:29N 37°55' W 122°25'2 4.5
2017-Dec-16 13:00N 37°53' W 122°25'4 7.6
2017-Dec-16 12:30N 37°50' W 122°24'3 6.9
2017-Dec-16 12:00N 37°48' W 122°20'2 4.5
2017-Dec-16 11:30N 37°48' W 122°17'0 0.3
2017-Dec-16 11:00N 37°48' W 122°17'0 0.0
2017-Dec-16 10:30N 37°48' W 122°17'0 0.0
2017-Dec-16 10:01N 37°48' W 122°17'0 0.0
2017-Dec-16 09:30N 37°48' W 122°17'0 0.0
2017-Dec-16 09:00N 37°48' W 122°17'0 0.0
2017-Dec-16 08:31N 37°48' W 122°17'0 0.0
2017-Dec-16 08:01N 37°48' W 122°17'0 0.0
2017-Dec-16 07:30N 37°48' W 122°17'0 0.0
2017-Dec-16 07:00N 37°48' W 122°17'0 0.0
2017-Dec-16 06:30N 37°48' W 122°17'0 0.0
2017-Dec-16 06:01N 37°48' W 122°17'0 0.0
2017-Dec-16 05:30N 37°48' W 122°17'0 0.0
2017-Dec-16 05:00N 37°48' W 122°17'0 0.0
2017-Dec-16 04:30N 37°48' W 122°17'0 0.0
2017-Dec-16 04:00N 37°48' W 122°17'0 0.0
2017-Dec-16 03:30N 37°48' W 122°17'0 0.0
2017-Dec-16 03:00N 37°48' W 122°17'0 0.0
2017-Dec-16 02:30N 37°48' W 122°17'0 0.0
2017-Dec-16 02:00N 37°48' W 122°17'0 0.0
2017-Dec-16 01:30N 37°48' W 122°17'0 0.0
2017-Dec-16 01:01N 37°48' W 122°17'0 0.0
2017-Dec-16 00:30N 37°48' W 122°17'0 0.0
2017-Dec-16 00:00N 37°48' W 122°17'0 0.0
2017-Dec-15 23:30N 37°48' W 122°17'0 0.0
2017-Dec-15 22:59N 37°48' W 122°17'0 0.0
2017-Dec-15 22:29N 37°48' W 122°17'0 0.0
2017-Dec-15 21:59N 37°48' W 122°17'0 0.0
2017-Dec-15 21:29N 37°48' W 122°17'0 0.0
2017-Dec-15 20:59N 37°48' W 122°17'0 0.0
2017-Dec-15 20:29N 37°48' W 122°17'0 0.0
2017-Dec-15 19:59N 37°48' W 122°17'0 0.5
2017-Dec-15 19:31N 37°48' W 122°17'1 2.1
2017-Dec-15 19:00N 37°48' W 122°19'1 1.8
2017-Dec-15 18:31N 37°48' W 122°18'0 0.7
2017-Dec-15 18:01N 37°48' W 122°18'2 4.9
2017-Dec-15 17:31N 37°48' W 122°21'1 1.9
2017-Dec-15 17:00N 37°48' W 122°22'4 8.3
2017-Dec-15 16:31N 37°48' W 122°17'0 0.1
2017-Dec-15 16:00N 37°48' W 122°17'2 3.9
2017-Dec-15 15:22N 37°49' W 122°20'0 0.0
2017-Dec-15 14:55N 37°49' W 122°20'0 0.0
2017-Dec-15 14:28N 37°49' W 122°20'0 0.0
2017-Dec-15 13:58N 37°49' W 122°20'0 0.0
2017-Dec-15 13:28N 37°49' W 122°20'0 0.0
2017-Dec-15 12:58N 37°49' W 122°20'0 0.0
2017-Dec-15 12:28N 37°49' W 122°20'0 0.0
2017-Dec-15 11:58N 37°49' W 122°20'0 0.0
2017-Dec-15 11:28N 37°49' W 122°20'0 0.0
2017-Dec-15 10:58N 37°49' W 122°20'3 7.0
2017-Dec-15 10:30N 37°49' W 122°24'5 9.3
2017-Dec-15 10:00N 37°49' W 122°30'1 2.1
2017-Dec-15 09:30N 37°49' W 122°31'510.0
2017-Dec-15 09:01N 37°51' W 122°25'5 9.2
2017-Dec-15 08:30N 37°55' W 122°25'1 1.1
2017-Dec-15 08:00N 37°55' W 122°25'0 0.1
2017-Dec-15 07:28N 37°55' W 122°25'0 0.0
2017-Dec-15 06:58N 37°55' W 122°25'0 0.4
2017-Dec-15 06:30N 37°55' W 122°25'0 0.4
2017-Dec-15 06:00N 37°55' W 122°25'3 6.4
2017-Dec-15 05:30N 37°52' W 122°24'3 6.0
2017-Dec-15 05:00N 37°49' W 122°23'2 4.8
2017-Dec-15 04:30N 37°47' W 122°22'2 3.7
2017-Dec-15 04:00N 37°45' W 122°21'3 2.0
2017-Dec-15 02:30N 37°48' W 122°21'0 0.3
2017-Dec-15 01:00N 37°49' W 122°20'3 5.2
2017-Dec-15 00:30N 37°48' W 122°17'0 0.0
2017-Dec-14 18:31N 37°48' W 122°17'0 0.0
2017-Dec-14 18:00N 37°48' W 122°17'0 0.0
2017-Dec-14 17:30N 37°48' W 122°17'0 0.5
2017-Dec-14 17:01N 37°48' W 122°17'1 2.3
2017-Dec-14 16:30N 37°48' W 122°19'0 0.7
2017-Dec-14 16:00N 37°48' W 122°19'1 1.3
2017-Dec-14 15:00N 37°48' W 122°17'0 0.9
2017-Dec-14 14:30N 37°48' W 122°17'2 3.8
2017-Dec-14 14:01N 37°48' W 122°20'1 1.5
2017-Dec-14 13:31N 37°48' W 122°21'3 5.5
2017-Dec-14 13:00N 37°48' W 122°17'0 0.2
2017-Dec-14 12:29N 37°48' W 122°17'0 0.0
2017-Dec-14 11:59N 37°48' W 122°17'0 0.0
2017-Dec-14 11:29N 37°48' W 122°17'0 0.0
2017-Dec-14 10:59N 37°48' W 122°17'0 0.0
2017-Dec-14 10:29N 37°48' W 122°17'0 0.0
2017-Dec-14 09:59N 37°48' W 122°17'0 0.0
2017-Dec-14 09:26N 37°48' W 122°17'0 0.0
2017-Dec-14 08:59N 37°48' W 122°17'0 0.0
2017-Dec-14 08:29N 37°48' W 122°17'0 0.0
2017-Dec-14 07:59N 37°48' W 122°17'0 0.0
2017-Dec-14 07:29N 37°48' W 122°17'0 0.0
2017-Dec-14 06:59N 37°48' W 122°17'0 0.0
2017-Dec-14 06:29N 37°48' W 122°17'0 0.0
2017-Dec-14 05:59N 37°48' W 122°17'0 0.0
2017-Dec-14 05:29N 37°48' W 122°17'0 0.0
2017-Dec-14 04:59N 37°48' W 122°17'0 0.0
2017-Dec-14 04:26N 37°48' W 122°17'0 0.0
2017-Dec-14 03:56N 37°48' W 122°17'0 0.0
2017-Dec-14 03:29N 37°48' W 122°17'0 0.0
2017-Dec-14 02:59N 37°48' W 122°17'0 0.0
2017-Dec-14 02:29N 37°48' W 122°17'0 0.2
2017-Dec-14 02:01N 37°48' W 122°17'2 3.6
2017-Dec-14 01:31N 37°48' W 122°20'1 1.1
2017-Dec-14 01:00N 37°48' W 122°20'2 3.7
2017-Dec-14 00:30N 37°47' W 122°22'1 1.4
2017-Dec-14 00:00N 37°47' W 122°22'2 4.5
2017-Dec-13 23:31N 37°48' W 122°19'1 2.7
2017-Dec-13 23:00N 37°48' W 122°17'0 0.0
2017-Dec-13 22:27N 37°48' W 122°17'0 0.0
2017-Dec-13 22:00N 37°48' W 122°17'0 0.0
2017-Dec-13 21:30N 37°48' W 122°17'0 0.0
2017-Dec-13 20:59N 37°48' W 122°17'0 0.0
2017-Dec-13 20:26N 37°48' W 122°17'0 0.0
2017-Dec-13 20:00N 37°48' W 122°17'0 0.0
2017-Dec-13 19:30N 37°48' W 122°17'0 0.0
2017-Dec-13 19:00N 37°48' W 122°17'0 0.0
2017-Dec-13 18:29N 37°48' W 122°17'0 0.0
2017-Dec-13 17:59N 37°48' W 122°17'0 0.0
2017-Dec-13 17:30N 37°48' W 122°17'0 0.0
2017-Dec-13 17:00N 37°48' W 122°17'0 0.0
2017-Dec-13 16:29N 37°48' W 122°17'0 0.0
2017-Dec-13 16:00N 37°48' W 122°17'0 0.0
2017-Dec-13 15:30N 37°48' W 122°17'2 3.7
2017-Dec-13 15:00N 37°48' W 122°19'0 0.4
2017-Dec-13 14:30N 37°48' W 122°19'1 2.7
2017-Dec-13 14:00N 37°48' W 122°17'1 1.5
2017-Dec-13 13:30N 37°48' W 122°18'1 2.8
2017-Dec-13 13:01N 37°48' W 122°20'1 2.7
2017-Dec-13 12:30N 37°48' W 122°22'3 6.5
2017-Dec-13 12:00N 37°48' W 122°18'1 1.0
2017-Dec-13 11:30N 37°48' W 122°18'1 1.4
2017-Dec-13 11:00N 37°48' W 122°19'0 0.0
2017-Dec-13 10:30N 37°48' W 122°19'2 3.3
2017-Dec-13 10:00N 37°48' W 122°17'0 0.0
2017-Dec-13 09:30N 37°48' W 122°17'0 0.0
2017-Dec-13 09:00N 37°48' W 122°17'0 0.0
2017-Dec-13 08:30N 37°48' W 122°17'0 0.0
2017-Dec-13 08:00N 37°48' W 122°17'0 0.0
2017-Dec-13 07:30N 37°48' W 122°17'0 0.0
2017-Dec-13 07:00N 37°48' W 122°17'0 0.0
2017-Dec-13 06:30N 37°48' W 122°17'0 0.0
2017-Dec-13 06:00N 37°48' W 122°17'0 0.0
2017-Dec-13 05:30N 37°48' W 122°17'0 0.0
2017-Dec-13 05:00N 37°48' W 122°17'0 0.0
2017-Dec-13 04:30N 37°48' W 122°17'0 0.5
2017-Dec-13 04:00N 37°48' W 122°17'2 5.0
2017-Dec-13 03:30N 37°49' W 122°20'0 0.1
2017-Dec-13 03:01N 37°49' W 122°20'0 0.0
2017-Dec-13 02:30N 37°49' W 122°20'1 2.8
2017-Dec-13 02:00N 37°48' W 122°19'0 0.8
2017-Dec-13 01:31N 37°48' W 122°19'1 1.3
2017-Dec-13 01:00N 37°48' W 122°19'0 0.1
2017-Dec-13 00:30N 37°48' W 122°18'1 1.4
2017-Dec-13 00:01N 37°48' W 122°19'0 0.1
2017-Dec-12 23:31N 37°48' W 122°19'2 3.4
2017-Dec-12 23:00N 37°48' W 122°17'0 0.0
2017-Dec-12 22:30N 37°48' W 122°17'4 7.7
2017-Dec-12 22:00N 37°48' W 122°22'4 9.0
2017-Dec-12 21:30N 37°49' W 122°28'3 5.6
2017-Dec-12 21:00N 37°49' W 122°31'3 6.4
2017-Dec-12 20:30N 37°50' W 122°27'4 7.2
2017-Dec-12 20:00N 37°53' W 122°25'2 3.9
2017-Dec-12 19:30N 37°55' W 122°25'0 0.3
2017-Dec-12 18:59N 37°55' W 122°25'0 0.3
2017-Dec-12 18:30N 37°55' W 122°25'3 6.2
2017-Dec-12 18:00N 37°52' W 122°25'4 8.8
2017-Dec-12 17:30N 37°49' W 122°21'4 7.0
2017-Dec-12 17:00N 37°48' W 122°17'0 0.0
2017-Dec-12 16:30N 37°48' W 122°17'0 0.0
2017-Dec-12 16:01N 37°48' W 122°17'0 0.0
2017-Dec-12 15:28N 37°48' W 122°17'0 0.0
2017-Dec-12 14:58N 37°48' W 122°17'0 0.0
2017-Dec-12 14:30N 37°48' W 122°17'0 0.0
2017-Dec-12 14:01N 37°48' W 122°17'0 0.0
2017-Dec-12 13:28N 37°48' W 122°17'0 0.0
2017-Dec-12 12:58N 37°48' W 122°17'0 0.0
2017-Dec-12 12:31N 37°48' W 122°17'0 0.0
2017-Dec-12 12:00N 37°48' W 122°17'0 0.0
2017-Dec-12 11:28N 37°48' W 122°17'0 0.0
2017-Dec-12 10:58N 37°48' W 122°17'0 0.0
2017-Dec-12 10:31N 37°48' W 122°17'0 0.0
2017-Dec-12 09:58N 37°48' W 122°17'0 0.0
2017-Dec-12 09:25N 37°48' W 122°17'0 0.0
2017-Dec-12 08:54N 37°48' W 122°17'0 0.0
2017-Dec-12 08:28N 37°48' W 122°17'0 0.0
2017-Dec-12 08:01N 37°48' W 122°17'0 0.0
2017-Dec-12 07:31N 37°48' W 122°17'0 0.0
2017-Dec-12 06:57N 37°48' W 122°17'0 0.0
2017-Dec-12 06:28N 37°48' W 122°17'0 0.0
2017-Dec-12 05:58N 37°48' W 122°17'0 0.0
2017-Dec-12 05:27N 37°48' W 122°17'0 0.0
2017-Dec-12 04:58N 37°48' W 122°17'0 0.0
2017-Dec-12 04:31N 37°48' W 122°17'0 0.0
2017-Dec-12 03:57N 37°48' W 122°17'0 0.0
2017-Dec-12 03:31N 37°48' W 122°17'0 0.0
2017-Dec-12 03:00N 37°48' W 122°17'2 3.5
2017-Dec-12 02:30N 37°48' W 122°19'0 0.0
2017-Dec-12 02:00N 37°48' W 122°19'3 5.7
2017-Dec-12 01:31N 37°48' W 122°23'3 5.1
2017-Dec-12 01:00N 37°48' W 122°20'2 4.0
2017-Dec-12 00:30N 37°48' W 122°17'0 0.0
2017-Dec-11 23:59N 37°48' W 122°17'0 0.0
2017-Dec-11 23:29N 37°48' W 122°17'0 0.0
2017-Dec-11 22:59N 37°48' W 122°17'0 0.0
2017-Dec-11 22:26N 37°48' W 122°17'0 0.0
2017-Dec-11 21:59N 37°48' W 122°17'0 0.0
2017-Dec-11 21:26N 37°48' W 122°17'0 0.0
2017-Dec-11 20:59N 37°48' W 122°17'0 0.0
2017-Dec-11 20:29N 37°48' W 122°17'0 0.0
2017-Dec-11 19:59N 37°48' W 122°17'0 0.0
2017-Dec-11 19:29N 37°48' W 122°17'1 3.1
2017-Dec-11 19:01N 37°48' W 122°19'4 8.1
2017-Dec-11 18:30N 37°50' W 122°24'5 9.9
2017-Dec-11 18:00N 37°54' W 122°25'510.7
2017-Dec-11 17:30N 37°60' W 122°25'5 9.6
2017-Dec-11 17:00N 38°03' W 122°20'4 8.5
2017-Dec-11 16:30N 38°04' W 122°15'4 8.2
2017-Dec-11 15:58N 38°02' W 122°10'2 3.4
2017-Dec-11 15:30N 38°02' W 122°08'0 0.0
2017-Dec-11 15:00N 38°02' W 122°08'0 0.0
2017-Dec-11 14:30N 38°02' W 122°08'0 0.2
2017-Dec-11 14:00N 38°02' W 122°08'2 4.0
2017-Dec-11 13:30N 38°03' W 122°10'4 8.9
2017-Dec-11 13:00N 38°04' W 122°16'5 8.0
2017-Dec-11 12:23N 38°02' W 122°22'4 8.6
2017-Dec-11 11:57N 37°59' W 122°25'511.6
2017-Dec-11 11:30N 37°54' W 122°27'510.7
2017-Dec-11 11:00N 37°50' W 122°24'5 9.2
2017-Dec-11 10:30N 37°46' W 122°21'1 1.3
2017-Dec-11 10:01N 37°46' W 122°21'3 6.6
2017-Dec-11 09:30N 37°48' W 122°17'0 0.0
2017-Dec-11 09:00N 37°48' W 122°17'0 0.0
2017-Dec-11 08:30N 37°48' W 122°17'0 0.0
2017-Dec-11 08:00N 37°48' W 122°17'0 0.0
2017-Dec-11 07:31N 37°48' W 122°17'0 0.0
2017-Dec-11 07:00N 37°48' W 122°17'0 0.0
2017-Dec-11 06:31N 37°48' W 122°17'0 0.0
2017-Dec-11 06:00N 37°48' W 122°17'0 0.0
2017-Dec-11 05:30N 37°48' W 122°17'0 0.0
2017-Dec-11 05:00N 37°48' W 122°17'0 0.0
2017-Dec-11 04:30N 37°48' W 122°17'2 3.6
2017-Dec-11 04:00N 37°48' W 122°19'0 0.0
2017-Dec-11 03:30N 37°48' W 122°19'1 1.9
2017-Dec-11 03:01N 37°48' W 122°18'1 2.0
2017-Dec-11 02:31N 37°48' W 122°17'1 2.2
2017-Dec-11 02:00N 37°48' W 122°18'3 6.1
2017-Dec-11 01:30N 37°48' W 122°22'1 2.4
2017-Dec-11 01:00N 37°48' W 122°21'3 5.6
2017-Dec-11 00:30N 37°48' W 122°17'0 0.0
2017-Dec-10 23:58N 37°48' W 122°17'0 0.0
2017-Dec-10 23:28N 37°48' W 122°17'0 0.0
2017-Dec-10 22:58N 37°48' W 122°17'0 0.0
2017-Dec-10 22:28N 37°48' W 122°17'0 0.0
2017-Dec-10 21:58N 37°48' W 122°17'0 0.0
2017-Dec-10 21:25N 37°48' W 122°17'0 0.0
2017-Dec-10 20:58N 37°48' W 122°17'0 0.0
2017-Dec-10 20:28N 37°48' W 122°17'0 0.0
2017-Dec-10 19:58N 37°48' W 122°17'0 0.0
2017-Dec-10 19:28N 37°48' W 122°17'0 0.0
2017-Dec-10 18:58N 37°48' W 122°17'0 0.0
2017-Dec-10 18:28N 37°48' W 122°17'0 0.0
2017-Dec-10 17:58N 37°48' W 122°17'0 0.0
2017-Dec-10 17:28N 37°48' W 122°17'0 0.0
2017-Dec-10 16:58N 37°48' W 122°17'0 0.0
2017-Dec-10 16:28N 37°48' W 122°17'1 3.2
2017-Dec-10 16:00N 37°48' W 122°19'0 0.4
2017-Dec-10 15:30N 37°48' W 122°19'1 2.4
2017-Dec-10 15:00N 37°48' W 122°21'2 4.4
2017-Dec-10 14:30N 37°48' W 122°18'0 0.8
2017-Dec-10 14:00N 37°48' W 122°18'1 2.5
2017-Dec-10 13:30N 37°48' W 122°19'0 0.1
2017-Dec-10 13:01N 37°48' W 122°19'1 1.8
2017-Dec-10 12:30N 37°48' W 122°18'1 1.3
2017-Dec-10 11:59N 37°48' W 122°17'0 0.0
2017-Dec-10 11:29N 37°48' W 122°17'0 0.0
2017-Dec-10 10:59N 37°48' W 122°17'0 0.0
2017-Dec-10 10:29N 37°48' W 122°17'0 0.0
2017-Dec-10 09:59N 37°48' W 122°17'0 0.0
2017-Dec-10 09:29N 37°48' W 122°17'0 0.0
2017-Dec-10 08:59N 37°48' W 122°17'0 0.0
2017-Dec-10 08:29N 37°48' W 122°17'0 0.0
2017-Dec-10 07:59N 37°48' W 122°17'0 0.0
2017-Dec-10 07:29N 37°48' W 122°17'0 0.0
2017-Dec-10 06:59N 37°48' W 122°17'0 0.0
2017-Dec-10 06:29N 37°48' W 122°17'0 0.0
2017-Dec-10 05:59N 37°48' W 122°17'0 0.0
2017-Dec-10 05:29N 37°48' W 122°17'0 0.0
2017-Dec-10 04:59N 37°48' W 122°17'0 0.0
2017-Dec-10 04:26N 37°48' W 122°17'0 0.0
2017-Dec-10 03:59N 37°48' W 122°17'0 0.0
2017-Dec-10 03:29N 37°48' W 122°17'0 0.0
2017-Dec-10 02:59N 37°48' W 122°17'0 0.0
2017-Dec-10 02:29N 37°48' W 122°17'0 0.0
2017-Dec-10 01:59N 37°48' W 122°17'0 0.0
2017-Dec-10 01:29N 37°48' W 122°17'0 0.0
2017-Dec-10 00:50N 37°48' W 122°17'0 0.0
2017-Dec-10 00:29N 37°48' W 122°17'0 0.0
2017-Dec-09 23:56N 37°48' W 122°17'0 0.0
2017-Dec-09 23:29N 37°48' W 122°17'0 0.0
2017-Dec-09 22:56N 37°48' W 122°17'0 0.0
2017-Dec-09 22:29N 37°48' W 122°17'0 0.0
2017-Dec-09 21:56N 37°48' W 122°17'0 0.0
2017-Dec-09 21:29N 37°48' W 122°17'0 0.0
2017-Dec-09 20:59N 37°48' W 122°17'0 0.0
2017-Dec-09 20:23N 37°48' W 122°17'0 0.0
2017-Dec-09 19:59N 37°48' W 122°17'0 0.0
2017-Dec-09 19:26N 37°48' W 122°17'0 0.0
2017-Dec-09 18:56N 37°48' W 122°17'0 0.0
2017-Dec-09 18:29N 37°48' W 122°17'0 0.0
2017-Dec-09 17:56N 37°48' W 122°17'0 0.0
2017-Dec-09 17:29N 37°48' W 122°17'0 0.0
2017-Dec-09 16:59N 37°48' W 122°17'0 0.0
2017-Dec-09 16:26N 37°48' W 122°17'0 0.0
2017-Dec-09 15:59N 37°48' W 122°17'0 0.0
2017-Dec-09 15:29N 37°48' W 122°17'0 0.0
2017-Dec-09 14:59N 37°48' W 122°17'0 0.0
2017-Dec-09 14:29N 37°48' W 122°17'2 3.2
2017-Dec-09 14:00N 37°48' W 122°19'0 0.3
2017-Dec-09 13:30N 37°48' W 122°19'2 3.9
2017-Dec-09 13:00N 37°48' W 122°22'2 4.0
2017-Dec-09 12:30N 37°49' W 122°24'3 6.4
2017-Dec-09 12:00N 37°46' W 122°22'1 3.0
2017-Dec-09 11:30N 37°45' W 122°20'0 0.6
2017-Dec-09 11:00N 37°45' W 122°20'2 3.8
2017-Dec-09 10:31N 37°46' W 122°22'4 8.0
2017-Dec-09 10:00N 37°49' W 122°25'4 8.7
2017-Dec-09 09:30N 37°49' W 122°31'0 1.0
2017-Dec-09 09:00N 37°49' W 122°31'1 2.7
2017-Dec-09 08:30N 37°49' W 122°30'4 7.3
2017-Dec-09 08:00N 37°49' W 122°25'4 7.7
2017-Dec-09 07:30N 37°49' W 122°20'0 0.1
2017-Dec-09 07:00N 37°49' W 122°20'0 0.0
2017-Dec-09 06:30N 37°49' W 122°20'0 0.1
2017-Dec-09 06:00N 37°49' W 122°20'4 7.0
2017-Dec-09 05:30N 37°45' W 122°21'1 1.1
2017-Dec-09 05:01N 37°46' W 122°22'4 7.2
2017-Dec-09 04:30N 37°49' W 122°24'4 8.7
2017-Dec-09 04:01N 37°49' W 122°29'2 3.4
2017-Dec-09 03:30N 37°49' W 122°31'0 0.2
2017-Dec-09 03:00N 37°49' W 122°31'1 1.6
2017-Dec-09 02:30N 37°49' W 122°30'3 5.8
2017-Dec-09 02:00N 37°49' W 122°27'4 8.6
2017-Dec-09 01:30N 37°48' W 122°21'3 6.6
2017-Dec-09 01:00N 37°48' W 122°17'0 0.0
2017-Dec-09 00:30N 37°48' W 122°17'0 0.0
2017-Dec-09 00:00N 37°48' W 122°17'0 0.0
2017-Dec-08 23:30N 37°48' W 122°17'0 0.0
2017-Dec-08 23:00N 37°48' W 122°17'0 0.0
2017-Dec-08 22:30N 37°48' W 122°17'0 0.0
2017-Dec-08 22:00N 37°48' W 122°17'0 0.0
2017-Dec-08 21:30N 37°48' W 122°17'0 0.0
2017-Dec-08 21:00N 37°48' W 122°17'0 0.0
2017-Dec-08 20:30N 37°48' W 122°17'0 0.0
2017-Dec-08 20:00N 37°48' W 122°17'0 0.0
2017-Dec-08 19:30N 37°48' W 122°17'0 0.0
2017-Dec-08 19:00N 37°48' W 122°17'0 0.0
2017-Dec-08 18:30N 37°48' W 122°17'0 0.0
2017-Dec-08 18:00N 37°48' W 122°17'0 0.0
2017-Dec-08 17:30N 37°48' W 122°17'0 0.0
2017-Dec-08 17:00N 37°48' W 122°17'3 5.5
2017-Dec-08 16:30N 37°48' W 122°21'4 7.7
2017-Dec-08 16:00N 37°51' W 122°24'510.8
2017-Dec-08 15:30N 37°56' W 122°26'510.2
2017-Dec-08 15:00N 38°01' W 122°24'5 9.4
2017-Dec-08 14:30N 38°03' W 122°18'5 8.7
2017-Dec-08 13:58N 38°03' W 122°12'4 3.0
2017-Dec-08 12:42N 38°02' W 122°08'0 0.0
2017-Dec-08 12:29N 38°02' W 122°08'3 3.7
2017-Dec-08 11:47N 38°03' W 122°11'3 8.7
2017-Dec-08 11:29N 38°04' W 122°14'610.2
2017-Dec-08 10:57N 38°03' W 122°21'511.7
2017-Dec-08 10:29N 37°59' W 122°26'611.6
2017-Dec-08 09:59N 37°53' W 122°26'510.1
2017-Dec-08 09:30N 37°49' W 122°23'3 6.9
2017-Dec-08 09:01N 37°46' W 122°21'0 0.8
2017-Dec-08 08:31N 37°46' W 122°21'3 6.0
2017-Dec-08 08:01N 37°48' W 122°17'0 0.2
2017-Dec-08 07:28N 37°48' W 122°17'0 0.0
2017-Dec-08 06:58N 37°48' W 122°17'0 0.0
2017-Dec-08 06:28N 37°48' W 122°17'0 0.0
2017-Dec-08 05:58N 37°48' W 122°17'0 0.0
2017-Dec-08 05:28N 37°48' W 122°17'0 0.0
2017-Dec-08 04:58N 37°48' W 122°17'0 0.0
2017-Dec-08 04:28N 37°48' W 122°17'0 0.0
2017-Dec-08 03:58N 37°48' W 122°17'0 0.0
2017-Dec-08 03:28N 37°48' W 122°17'0 0.0
2017-Dec-08 02:58N 37°48' W 122°17'0 0.0
2017-Dec-08 02:28N 37°48' W 122°17'0 0.0
2017-Dec-08 01:58N 37°48' W 122°17'0 0.0
2017-Dec-08 01:28N 37°48' W 122°17'0 0.0
2017-Dec-08 00:58N 37°48' W 122°17'2 3.5
2017-Dec-08 00:31N 37°48' W 122°19'1 2.6
2017-Dec-08 00:01N 37°48' W 122°18'1 2.9
2017-Dec-07 23:30N 37°48' W 122°19'0 0.7
2017-Dec-07 23:01N 37°48' W 122°19'1 2.8
2017-Dec-07 22:31N 37°48' W 122°17'0 0.0
2017-Dec-07 22:00N 37°48' W 122°17'0 0.0
2017-Dec-07 21:30N 37°48' W 122°17'0 0.0
2017-Dec-07 21:01N 37°48' W 122°17'0 0.0
2017-Dec-07 20:30N 37°48' W 122°17'0 0.0
2017-Dec-07 20:00N 37°48' W 122°17'0 0.0
2017-Dec-07 19:30N 37°48' W 122°17'0 0.0
2017-Dec-07 19:00N 37°48' W 122°17'0 0.0
2017-Dec-07 18:30N 37°48' W 122°17'0 0.0
2017-Dec-07 18:00N 37°48' W 122°17'0 0.0
2017-Dec-07 17:30N 37°48' W 122°17'3 6.0
2017-Dec-07 17:00N 37°47' W 122°21'510.4
2017-Dec-07 16:30N 37°41' W 122°20'510.5
2017-Dec-07 16:01N 37°37' W 122°17'611.2
2017-Dec-07 15:30N 37°33' W 122°12'2 4.2
2017-Dec-07 14:59N 37°31' W 122°12'0 0.1
2017-Dec-07 14:29N 37°31' W 122°13'1 1.6
2017-Dec-07 14:01N 37°32' W 122°12'4 7.2
2017-Dec-07 13:29N 37°35' W 122°15'5 9.5
2017-Dec-07 13:00N 37°38' W 122°18'5 9.4
2017-Dec-07 12:30N 37°42' W 122°20'5 9.7
2017-Dec-07 12:00N 37°47' W 122°21'3 5.7
2017-Dec-07 11:30N 37°48' W 122°17'0 0.0
2017-Dec-07 11:00N 37°48' W 122°17'0 0.0
2017-Dec-07 10:30N 37°48' W 122°17'0 0.0
2017-Dec-07 10:01N 37°48' W 122°17'0 0.0
2017-Dec-07 09:30N 37°48' W 122°17'0 0.0
2017-Dec-07 09:00N 37°48' W 122°17'0 0.0
2017-Dec-07 08:30N 37°48' W 122°17'0 0.0
2017-Dec-07 08:00N 37°48' W 122°17'0 0.0
2017-Dec-07 07:30N 37°48' W 122°17'0 0.0
2017-Dec-07 07:01N 37°48' W 122°17'0 0.0
2017-Dec-07 06:30N 37°48' W 122°17'0 0.0
2017-Dec-07 06:00N 37°48' W 122°17'0 0.0
2017-Dec-07 05:30N 37°48' W 122°17'0 0.0
2017-Dec-07 05:00N 37°48' W 122°17'0 0.1
2017-Dec-07 04:31N 37°47' W 122°17'0 0.0
2017-Dec-07 04:00N 37°47' W 122°17'0 0.0
2017-Dec-07 03:30N 37°47' W 122°17'2 4.6
2017-Dec-07 03:00N 37°49' W 122°20'0 0.1
2017-Dec-07 02:31N 37°49' W 122°20'2 3.8
2017-Dec-07 02:00N 37°48' W 122°22'1 1.0
2017-Dec-07 01:31N 37°48' W 122°23'3 5.4
2017-Dec-07 01:00N 37°48' W 122°19'0 0.4
2017-Dec-07 00:31N 37°48' W 122°20'3 6.1
2017-Dec-07 00:00N 37°49' W 122°23'2 3.1
2017-Dec-06 23:30N 37°50' W 122°24'4 8.8
2017-Dec-06 23:00N 37°54' W 122°25'5 9.5
2017-Dec-06 22:26N 37°60' W 122°25'5 8.7
2017-Dec-06 21:49N 38°03' W 122°19'5 8.0
2017-Dec-06 21:15N 38°04' W 122°13'  

Dump ship's entire track history